createdAt,value
2018-06-01T00:00:36.468Z,53.42
2018-06-01T00:03:04.952Z,53.03
2018-06-01T00:05:33.406Z,53.33
2018-06-01T00:08:01.812Z,53.29
2018-06-01T00:10:30.271Z,52.41
2018-06-01T00:12:58.692Z,53.39
2018-06-01T00:15:27.115Z,54.04
2018-06-01T00:17:55.537Z,54.17
2018-06-01T00:20:24.022Z,54.01
2018-06-01T00:22:52.424Z,54.39
2018-06-01T00:25:20.866Z,55.00
2018-06-01T00:27:49.341Z,54.53
2018-06-01T00:30:17.780Z,54.67
2018-06-01T00:32:46.214Z,55.17
2018-06-01T00:35:14.642Z,54.38
2018-06-01T00:37:43.039Z,54.31
2018-06-01T00:40:11.569Z,54.94
2018-06-01T00:42:40.032Z,54.79
2018-06-01T00:45:08.463Z,55.28
2018-06-01T00:47:36.909Z,55.10
2018-06-01T00:50:05.390Z,55.60
2018-06-01T00:52:33.835Z,56.94
2018-06-01T00:55:14.127Z,56.92
2018-06-01T00:57:42.510Z,57.08
2018-06-01T01:00:10.887Z,58.35
2018-06-01T01:02:39.375Z,58.43
2018-06-01T01:05:07.767Z,59.46
2018-06-01T01:07:36.166Z,60.21
2018-06-01T01:10:04.671Z,60.79
2018-06-01T01:12:33.096Z,61.85
2018-06-01T01:15:01.546Z,60.47
2018-06-01T01:17:30.007Z,61.56
2018-06-01T01:19:58.484Z,61.65
2018-06-01T01:22:26.949Z,60.98
2018-06-01T01:24:55.404Z,60.38
2018-06-01T01:27:23.840Z,59.33
2018-06-01T01:29:52.264Z,59.53
2018-06-01T01:32:20.695Z,59.98
2018-06-01T01:34:49.097Z,60.08
2018-06-01T01:37:29.167Z,60.77
2018-06-01T01:40:00.484Z,60.55
2018-06-01T01:42:28.916Z,60.86
2018-06-01T01:44:57.355Z,60.93
2018-06-01T01:47:25.810Z,60.35
2018-06-01T01:49:54.345Z,60.99
2018-06-01T01:52:22.767Z,60.11
2018-06-01T01:54:51.230Z,60.76
2018-06-01T01:57:19.683Z,62.17
2018-06-01T01:59:48.097Z,62.06
2018-06-01T02:02:16.542Z,61.67
2018-06-01T02:04:44.942Z,62.00
2018-06-01T02:07:13.365Z,62.08
2018-06-01T02:09:41.811Z,62.51
2018-06-01T02:12:10.210Z,64.04
2018-06-01T02:14:38.660Z,64.41
2018-06-01T02:17:07.133Z,64.76
2018-06-01T02:19:35.530Z,63.85
2018-06-01T02:22:03.931Z,63.59
2018-06-01T02:24:32.384Z,64.70
2018-06-01T02:27:00.946Z,63.43
2018-06-01T02:29:29.332Z,63.26
2018-06-01T02:31:57.767Z,63.69
2018-06-01T02:34:26.209Z,64.09
2018-06-01T02:36:54.627Z,63.15
2018-06-01T02:39:23.076Z,64.04
2018-06-01T02:41:51.521Z,63.46
2018-06-01T02:44:19.967Z,63.69
2018-06-01T02:46:48.404Z,64.50
2018-06-01T02:49:16.842Z,64.70
2018-06-01T02:51:45.277Z,64.93
2018-06-01T02:54:13.731Z,66.31
2018-06-01T02:56:42.121Z,65.19
2018-06-01T02:59:10.624Z,65.11
2018-06-01T03:01:39.070Z,64.94
2018-06-01T03:04:07.503Z,65.14
2018-06-01T03:06:47.776Z,65.50
2018-06-01T03:09:16.347Z,65.25
2018-06-01T03:11:44.788Z,65.84
2018-06-01T03:14:13.303Z,65.80
2018-06-01T03:16:41.732Z,65.70
2018-06-01T03:19:10.281Z,64.96
2018-06-01T03:21:38.678Z,65.13
2018-06-01T03:24:07.144Z,64.94
2018-06-01T03:26:35.601Z,65.17
2018-06-01T03:29:04.071Z,64.29
2018-06-01T03:31:32.520Z,64.52
2018-06-01T03:34:00.918Z,64.58
2018-06-01T03:36:29.406Z,66.17
2018-06-01T03:38:58.801Z,65.95
2018-06-01T03:41:27.230Z,65.17
2018-06-01T03:43:55.643Z,64.74
2018-06-01T03:46:24.117Z,64.70
2018-06-01T03:48:52.606Z,63.73
2018-06-01T03:51:21.037Z,62.77
2018-06-01T03:53:49.589Z,61.84
2018-06-01T03:56:18.029Z,61.07
2018-06-01T03:58:46.452Z,61.26
2018-06-01T04:01:14.882Z,60.90
2018-06-01T04:03:43.265Z,59.92
2018-06-01T04:06:11.769Z,58.47
2018-06-01T04:08:40.246Z,57.66
2018-06-01T04:11:08.664Z,56.50
2018-06-01T04:13:37.081Z,55.71
2018-06-01T04:16:05.623Z,55.24
2018-06-01T04:18:34.072Z,54.36
2018-06-01T04:21:02.554Z,53.88
2018-06-01T04:23:31.044Z,53.37
2018-06-01T04:25:59.535Z,53.39
2018-06-01T04:28:27.943Z,52.66
2018-06-01T04:30:56.320Z,52.13
2018-06-01T04:33:24.770Z,52.02
2018-06-01T04:35:53.166Z,52.21
2018-06-01T04:38:21.632Z,51.79
2018-06-01T04:40:50.044Z,52.24
2018-06-01T04:43:18.511Z,52.77
2018-06-01T04:45:46.928Z,52.63
2018-06-01T04:48:15.313Z,52.31
2018-06-01T04:50:43.788Z,52.73
2018-06-01T04:53:12.183Z,52.31
2018-06-01T04:55:40.662Z,51.67
2018-06-01T04:58:09.055Z,51.10
2018-06-01T05:00:37.515Z,50.77
2018-06-01T05:03:05.947Z,50.60
2018-06-01T05:05:34.419Z,50.03
2018-06-01T05:08:02.903Z,49.82
2018-06-01T05:10:31.340Z,49.42
2018-06-01T05:12:59.816Z,48.65
2018-06-01T05:15:28.286Z,49.87
2018-06-01T05:17:56.753Z,50.12
2018-06-01T05:20:25.204Z,50.07
2018-06-01T05:22:53.687Z,49.41
2018-06-01T05:25:22.131Z,49.88
2018-06-01T05:27:50.546Z,50.56
2018-06-01T05:30:18.995Z,49.97
2018-06-01T05:32:47.489Z,49.50
2018-06-01T05:35:15.971Z,50.35
2018-06-01T05:37:44.363Z,49.66
2018-06-01T05:40:12.806Z,49.96
2018-06-01T05:42:41.271Z,48.74
2018-06-01T05:45:09.787Z,48.72
2018-06-01T05:47:38.218Z,47.74
2018-06-01T05:50:06.666Z,46.82
2018-06-01T05:52:35.147Z,46.28
2018-06-01T05:55:03.623Z,46.58
2018-06-01T05:57:32.067Z,45.64
2018-06-01T06:00:00.542Z,44.55
2018-06-01T06:02:28.998Z,43.74
2018-06-01T06:04:57.427Z,43.66
2018-06-01T06:07:25.855Z,43.78
2018-06-01T06:09:54.347Z,43.90
2018-06-01T06:12:22.798Z,44.25
2018-06-01T06:14:51.229Z,43.86
2018-06-01T06:17:19.699Z,43.41
2018-06-01T06:19:48.193Z,42.26
2018-06-01T06:22:16.647Z,42.14
2018-06-01T06:24:45.139Z,41.59
2018-06-01T06:27:13.560Z,40.57
2018-06-01T06:29:42.042Z,40.61
2018-06-01T06:32:10.480Z,40.24
2018-06-01T06:34:39.006Z,41.48
2018-06-01T06:37:07.451Z,40.77
2018-06-01T06:39:35.947Z,40.21
2018-06-01T06:42:04.420Z,39.68
2018-06-01T06:44:32.875Z,38.42
2018-06-01T06:47:01.306Z,38.71
2018-06-01T06:49:29.769Z,38.39
2018-06-01T06:51:58.207Z,37.28
2018-06-01T06:54:26.605Z,36.99
2018-06-01T06:56:55.039Z,36.45
2018-06-01T06:59:23.507Z,35.16
2018-06-01T07:01:51.934Z,34.78
2018-06-01T07:04:20.497Z,34.13
2018-06-01T07:06:48.968Z,33.82
2018-06-01T07:09:17.386Z,33.07
2018-06-01T07:11:45.827Z,33.29
2018-06-01T07:14:14.232Z,32.61
2018-06-01T07:16:42.691Z,33.07
2018-06-01T07:19:11.173Z,33.26
2018-06-01T07:21:39.640Z,33.94
2018-06-01T07:24:08.094Z,33.61
2018-06-01T07:26:36.524Z,34.20
2018-06-01T07:29:04.931Z,34.84
2018-06-01T07:31:33.353Z,35.08
2018-06-01T07:34:01.804Z,35.21
2018-06-01T07:36:30.214Z,35.18
2018-06-01T07:38:58.668Z,34.52
2018-06-01T07:41:27.179Z,34.32
2018-06-01T07:43:55.635Z,33.30
2018-06-01T07:46:24.087Z,32.12
2018-06-01T07:48:52.516Z,31.47
2018-06-01T07:51:21.026Z,31.44
2018-06-01T07:53:49.423Z,30.97
2018-06-01T07:56:18.212Z,31.52
2018-06-01T07:58:46.623Z,31.21
2018-06-01T08:01:15.089Z,31.77
2018-06-01T08:03:43.486Z,30.66
2018-06-01T08:06:11.918Z,29.84
2018-06-01T08:08:40.326Z,29.30
2018-06-01T08:11:08.755Z,29.39
2018-06-01T08:13:37.163Z,28.19
2018-06-01T08:16:05.647Z,27.74
2018-06-01T08:18:34.071Z,27.52
2018-06-01T08:21:02.519Z,27.71
2018-06-01T08:23:30.973Z,27.12
2018-06-01T08:25:59.391Z,27.78
2018-06-01T08:28:27.840Z,27.13
2018-06-01T08:30:56.287Z,27.36
2018-06-01T08:33:24.845Z,25.14
2018-06-01T08:35:53.351Z,23.29
2018-06-01T08:38:21.755Z,22.97
2018-06-01T08:40:50.221Z,22.71
2018-06-01T08:43:18.643Z,23.59
2018-06-01T08:45:47.068Z,21.54
2018-06-01T08:48:15.503Z,22.19
2018-06-01T08:50:43.931Z,23.58
2018-06-01T08:53:12.428Z,21.57
2018-06-01T08:55:40.829Z,21.17
2018-06-01T08:58:09.285Z,20.80
2018-06-01T09:00:37.671Z,21.69
2018-06-01T09:03:06.114Z,22.46
2018-06-01T09:05:34.578Z,21.80
2018-06-01T09:08:03.154Z,21.01
2018-06-01T09:10:31.636Z,20.94
2018-06-01T09:13:00.113Z,20.79
2018-06-01T09:15:28.568Z,20.78
2018-06-01T09:17:57.078Z,20.91
2018-06-01T09:20:25.502Z,20.41
2018-06-01T09:22:53.983Z,20.03
2018-06-01T09:25:22.439Z,20.40
2018-06-01T09:27:50.848Z,20.23
2018-06-01T09:30:19.268Z,19.72
2018-06-01T09:32:47.719Z,19.98
2018-06-01T09:35:16.120Z,19.70
2018-06-01T09:37:44.676Z,19.76
2018-06-01T09:40:13.065Z,19.33
2018-06-01T09:42:41.542Z,19.11
2018-06-01T09:45:09.996Z,19.61
2018-06-01T09:47:38.399Z,19.26
2018-06-01T09:50:06.833Z,18.96
2018-06-01T09:52:35.275Z,19.39
2018-06-01T09:55:03.712Z,18.75
2018-06-01T09:57:32.205Z,18.44
2018-06-01T10:00:00.658Z,17.60
2018-06-01T10:02:29.115Z,17.96
2018-06-01T10:04:57.576Z,18.12
2018-06-01T10:07:26.032Z,16.91
2018-06-01T10:10:00.168Z,16.35
2018-06-01T10:12:28.643Z,16.27
2018-06-01T10:14:57.106Z,15.87
2018-06-01T10:17:25.571Z,13.91
2018-06-01T10:19:54.000Z,11.11
2018-06-01T10:22:22.459Z,13.08
2018-06-01T10:24:50.884Z,14.36
2018-06-01T10:27:19.467Z,14.27
2018-06-01T10:29:47.876Z,13.51
2018-06-01T10:32:16.287Z,12.55
2018-06-01T10:34:44.732Z,12.49
2018-06-01T10:37:13.115Z,12.19
2018-06-01T10:39:41.550Z,11.64
2018-06-01T10:42:10.006Z,12.89
2018-06-01T10:44:38.460Z,13.08
2018-06-01T10:47:06.890Z,14.24
2018-06-01T10:49:35.362Z,12.50
2018-06-01T10:52:03.812Z,12.15
2018-06-01T10:54:32.223Z,11.42
2018-06-01T10:57:00.659Z,11.83
2018-06-01T10:59:29.117Z,11.27
2018-06-01T11:01:57.579Z,11.73
2018-06-01T11:04:26.011Z,11.05
2018-06-01T11:06:54.493Z,11.51
2018-06-01T11:09:22.945Z,11.98
2018-06-01T11:11:51.501Z,11.20
2018-06-01T11:14:19.928Z,11.20
2018-06-01T11:16:48.407Z,11.11
2018-06-01T11:19:16.873Z,11.61
2018-06-01T11:21:45.328Z,11.68
2018-06-01T11:24:13.727Z,12.52
2018-06-01T11:26:42.131Z,11.09
2018-06-01T11:29:10.564Z,10.72
2018-06-01T11:31:38.979Z,11.11
2018-06-01T11:34:07.382Z,10.58
2018-06-01T11:36:35.765Z,10.32
2018-06-01T11:39:04.323Z,10.99
2018-06-01T11:41:32.804Z,10.23
2018-06-01T11:44:01.264Z,9.81
2018-06-01T11:46:29.688Z,9.35
2018-06-01T11:48:58.181Z,10.61
2018-06-01T11:51:26.613Z,10.18
2018-06-01T11:53:55.040Z,9.96
2018-06-01T11:56:23.459Z,9.25
2018-06-01T11:58:51.935Z,9.16
2018-06-01T12:01:20.324Z,9.39
2018-06-01T12:03:48.796Z,8.50
2018-06-01T12:06:17.195Z,8.38
2018-06-01T12:08:45.623Z,8.70
2018-06-01T12:11:14.108Z,10.15
2018-06-01T12:13:42.485Z,9.37
2018-06-01T12:16:10.849Z,9.51
2018-06-01T12:18:39.292Z,9.61
2018-06-01T12:21:07.687Z,8.87
2018-06-01T12:23:36.085Z,8.36
2018-06-01T12:26:04.694Z,8.07
2018-06-01T12:28:33.106Z,8.36
2018-06-01T12:31:01.525Z,9.07
2018-06-01T12:33:29.992Z,8.79
2018-06-01T12:35:58.422Z,8.88
2018-06-01T12:38:26.860Z,8.99
2018-06-01T12:40:55.257Z,10.62
2018-06-01T12:43:23.732Z,11.66
2018-06-01T12:45:52.192Z,13.12
2018-06-01T12:48:20.603Z,12.34
2018-06-01T12:50:48.994Z,11.08
2018-06-01T12:53:17.456Z,10.14
2018-06-01T12:55:45.875Z,9.35
2018-06-01T12:58:14.372Z,8.61
2018-06-01T13:00:42.805Z,8.39
2018-06-01T13:03:11.229Z,7.74
2018-06-01T13:05:39.700Z,8.37
2018-06-01T13:08:08.088Z,7.89
2018-06-01T13:10:36.636Z,7.36
2018-06-01T13:13:05.096Z,8.34
2018-06-01T13:15:33.520Z,8.51
2018-06-01T13:18:01.972Z,8.19
2018-06-01T13:20:30.425Z,7.42
2018-06-01T13:22:58.895Z,7.17
2018-06-01T13:25:27.333Z,6.27
2018-06-01T13:27:55.741Z,6.34
2018-06-01T13:30:24.179Z,6.60
2018-06-01T13:32:52.635Z,6.35
2018-06-01T13:35:21.101Z,6.58
2018-06-01T13:37:49.507Z,6.31
2018-06-01T13:40:17.946Z,7.27
2018-06-01T13:42:46.707Z,8.23
2018-06-01T13:45:15.184Z,11.20
2018-06-01T13:47:43.709Z,14.11
2018-06-01T13:50:12.147Z,14.15
2018-06-01T13:52:40.607Z,13.15
2018-06-01T13:55:09.099Z,11.80
2018-06-01T13:57:37.560Z,10.33
2018-06-01T14:00:06.029Z,9.62
2018-06-01T14:02:34.419Z,8.82
2018-06-01T14:05:02.860Z,8.56
2018-06-01T14:07:31.272Z,9.69
2018-06-01T14:09:59.759Z,10.10
2018-06-01T14:12:28.180Z,10.74
2018-06-01T14:14:56.636Z,10.81
2018-06-01T14:17:25.100Z,11.07
2018-06-01T14:19:53.557Z,11.88
2018-06-01T14:22:22.018Z,11.01
2018-06-01T14:24:50.410Z,10.45
2018-06-01T14:27:18.855Z,10.35
2018-06-01T14:29:47.263Z,12.24
2018-06-01T14:32:15.671Z,11.64
2018-06-01T14:34:44.130Z,10.96
2018-06-01T14:37:12.564Z,9.95
2018-06-01T14:39:41.015Z,10.30
2018-06-01T14:42:09.420Z,12.40
2018-06-01T14:44:37.902Z,11.70
2018-06-01T14:47:06.407Z,10.47
2018-06-01T14:49:34.772Z,9.14
2018-06-01T14:52:03.235Z,8.66
2018-06-01T14:54:31.650Z,9.06
2018-06-01T14:57:00.099Z,9.24
2018-06-01T14:59:28.504Z,10.66
2018-06-01T15:01:56.913Z,12.71
2018-06-01T15:04:25.544Z,12.90
2018-06-01T15:06:54.019Z,12.76
2018-06-01T15:09:22.423Z,12.40
2018-06-01T15:11:50.884Z,11.59
2018-06-01T15:14:19.396Z,10.72
2018-06-01T15:16:47.804Z,10.55
2018-06-01T15:19:16.302Z,9.71
2018-06-01T15:21:44.748Z,10.42
2018-06-01T15:24:13.160Z,10.18
2018-06-01T15:26:41.706Z,12.40
2018-06-01T15:29:10.114Z,13.86
2018-06-01T15:31:38.568Z,13.16
2018-06-01T15:34:07.008Z,11.94
2018-06-01T15:36:35.443Z,12.14
2018-06-01T15:39:03.968Z,14.75
2018-06-01T15:41:32.418Z,18.01
2018-06-01T15:44:00.890Z,19.09
2018-06-01T15:46:29.371Z,21.07
2018-06-01T15:48:57.811Z,21.03
2018-06-01T15:51:26.273Z,19.32
2018-06-01T15:53:54.707Z,18.26
2018-06-01T15:56:23.103Z,16.13
2018-06-01T15:58:51.665Z,14.11
2018-06-01T16:01:20.112Z,13.25
2018-06-01T16:03:48.559Z,12.16
2018-06-01T16:06:16.979Z,12.10
2018-06-01T16:08:45.446Z,11.77
2018-06-01T16:11:13.887Z,11.46
2018-06-01T16:13:42.309Z,12.01
2018-06-01T16:16:10.740Z,11.95
2018-06-01T16:18:39.190Z,11.54
2018-06-01T16:21:07.627Z,12.75
2018-06-01T16:23:36.076Z,13.38
2018-06-01T16:26:04.471Z,12.67
2018-06-01T16:28:32.921Z,13.55
2018-06-01T16:31:01.336Z,14.65
2018-06-01T16:33:29.778Z,14.39
2018-06-01T16:35:58.179Z,14.37
2018-06-01T16:38:26.647Z,14.64
2018-06-01T16:40:55.112Z,14.21
2018-06-01T16:43:23.549Z,14.19
2018-06-01T16:45:51.972Z,14.30
2018-06-01T16:48:20.450Z,14.70
2018-06-01T16:50:48.884Z,14.85
2018-06-01T16:53:17.284Z,14.78
2018-06-01T16:55:45.757Z,16.39
2018-06-01T16:58:14.228Z,16.52
2018-06-01T17:00:42.652Z,18.22
2018-06-01T17:03:11.853Z,18.86
2018-06-01T17:05:40.296Z,19.21
2018-06-01T17:08:08.744Z,18.70
2018-06-01T17:10:37.149Z,19.46
2018-06-01T17:13:05.584Z,20.65
2018-06-01T17:15:34.104Z,20.68
2018-06-01T17:18:02.484Z,21.01
2018-06-01T17:20:30.960Z,21.69
2018-06-01T17:22:59.355Z,21.14
2018-06-01T17:25:27.818Z,21.39
2018-06-01T17:27:56.275Z,22.33
2018-06-01T17:30:24.675Z,22.57
2018-06-01T17:32:53.081Z,23.75
2018-06-01T17:35:21.523Z,24.60
2018-06-01T17:37:49.949Z,25.36
2018-06-01T17:40:18.384Z,25.76
2018-06-01T17:42:46.811Z,26.03
2018-06-01T17:45:15.293Z,26.90
2018-06-01T17:47:43.739Z,27.19
2018-06-01T17:50:12.200Z,27.96
2018-06-01T17:52:40.657Z,29.33
2018-06-01T17:55:09.104Z,29.57
2018-06-01T17:57:37.531Z,29.96
2018-06-01T18:00:06.021Z,30.50
2018-06-01T18:02:34.410Z,31.44
2018-06-01T18:05:02.914Z,31.57
2018-06-01T18:07:31.312Z,31.59
2018-06-01T18:09:59.807Z,32.23
2018-06-01T18:12:28.203Z,32.67
2018-06-01T18:14:56.652Z,32.82
2018-06-01T18:17:25.057Z,33.49
2018-06-01T18:19:53.532Z,33.41
2018-06-01T18:22:21.979Z,33.52
2018-06-01T18:24:51.341Z,33.78
2018-06-01T18:27:19.754Z,34.01
2018-06-01T18:29:48.160Z,34.71
2018-06-01T18:32:16.598Z,34.50
2018-06-01T18:34:45.041Z,35.04
2018-06-01T18:37:13.496Z,35.18
2018-06-01T18:39:41.938Z,35.57
2018-06-01T18:42:10.460Z,35.70
2018-06-01T18:44:38.934Z,36.05
2018-06-01T18:47:07.335Z,36.28
2018-06-01T18:49:35.868Z,37.11
2018-06-01T18:52:04.360Z,37.21
2018-06-01T18:54:32.841Z,37.89
2018-06-01T18:57:01.279Z,38.25
2018-06-01T18:59:29.679Z,39.00
2018-06-01T19:01:58.222Z,39.63
2018-06-01T19:04:26.593Z,40.22
2018-06-01T19:06:55.002Z,40.43
2018-06-01T19:09:23.761Z,40.07
2018-06-01T19:11:52.185Z,41.16
2018-06-01T19:14:20.600Z,41.76
2018-06-01T19:16:49.667Z,41.75
2018-06-01T19:19:18.034Z,42.47
2018-06-01T19:21:46.424Z,44.30
2018-06-01T19:24:14.875Z,43.74
2018-06-01T19:26:43.289Z,44.56
2018-06-01T19:29:11.701Z,44.38
2018-06-01T19:31:40.467Z,44.98
2018-06-01T19:34:08.902Z,45.99
2018-06-01T19:36:37.307Z,45.76
2018-06-01T19:39:06.211Z,46.43
2018-06-01T19:41:34.616Z,46.32
2018-06-01T19:44:03.022Z,46.68
2018-06-01T19:46:31.890Z,47.31
2018-06-01T19:49:00.292Z,46.77
2018-06-01T19:51:28.701Z,47.02
2018-06-01T19:53:57.113Z,48.98
2018-06-01T19:56:25.535Z,48.58
2018-06-01T19:58:53.933Z,50.48
2018-06-01T20:01:22.552Z,50.92
2018-06-01T20:03:50.964Z,50.61
2018-06-01T20:06:19.367Z,51.12
2018-06-01T20:08:48.295Z,51.38
2018-06-01T20:11:16.693Z,50.03
2018-06-01T20:13:45.104Z,49.31
2018-06-01T20:16:13.739Z,49.04
2018-06-01T20:18:42.261Z,49.93
2018-06-01T20:21:10.666Z,50.54
2018-06-01T20:23:39.409Z,50.90
2018-06-01T20:26:07.824Z,48.79
2018-06-01T20:28:36.216Z,49.49
2018-06-01T20:31:04.670Z,49.46
2018-06-01T20:33:33.092Z,49.99
2018-06-01T20:36:01.503Z,49.79
2018-06-01T20:38:30.242Z,50.93
2018-06-01T20:40:58.731Z,49.90
2018-06-01T20:43:27.130Z,50.00
2018-06-01T20:45:55.947Z,50.08
2018-06-01T20:48:24.355Z,50.16
2018-06-01T20:50:52.758Z,50.53
2018-06-01T20:53:21.700Z,50.03
2018-06-01T20:55:50.099Z,50.40
2018-06-01T20:58:18.500Z,50.79
2018-06-01T21:00:47.256Z,50.63
2018-06-01T21:03:15.688Z,51.45
2018-06-01T21:05:44.074Z,51.45
2018-06-01T21:08:12.894Z,51.25
2018-06-01T21:10:41.290Z,51.82
2018-06-01T21:13:09.709Z,52.65
2018-06-01T21:15:38.365Z,53.66
2018-06-01T21:18:06.881Z,53.45
2018-06-01T21:20:35.320Z,53.82
2018-06-01T21:23:04.045Z,53.88
2018-06-01T21:25:32.790Z,54.10
2018-06-01T21:28:01.351Z,51.56
2018-06-01T21:30:30.159Z,50.71
2018-06-01T21:32:58.581Z,51.02
2018-06-01T21:35:26.994Z,50.58
2018-06-01T21:37:55.740Z,50.55
2018-06-01T21:40:24.647Z,49.88
2018-06-01T21:42:53.037Z,49.49
2018-06-01T21:45:21.871Z,49.53
2018-06-01T21:47:51.114Z,50.32
2018-06-01T21:50:19.516Z,50.74
2018-06-01T21:52:48.003Z,51.24
2018-06-01T21:55:16.495Z,49.93
2018-06-01T21:57:45.285Z,51.05
2018-06-01T22:00:13.850Z,51.32
2018-06-01T22:02:42.372Z,52.70
2018-06-01T22:05:10.815Z,51.60
2018-06-01T22:07:39.545Z,52.14
2018-06-01T22:10:08.048Z,53.13
2018-06-01T22:12:36.477Z,54.35
2018-06-01T22:15:05.295Z,54.07
2018-06-01T22:17:33.778Z,53.81
2018-06-01T22:20:02.233Z,53.42
2018-06-01T22:22:31.106Z,52.35
2018-06-01T22:24:59.516Z,51.57
2018-06-01T22:27:27.928Z,51.90
2018-06-01T22:29:56.776Z,51.79
2018-06-01T22:32:25.171Z,52.91
2018-06-01T22:34:53.589Z,52.43
2018-06-01T22:37:22.169Z,52.22
2018-06-01T22:39:50.604Z,51.84
2018-06-01T22:42:19.079Z,52.88
2018-06-01T22:44:47.915Z,52.79
2018-06-01T22:47:16.406Z,52.85
2018-06-01T22:49:44.833Z,52.77
2018-06-01T22:52:13.646Z,53.05
2018-06-01T22:54:42.168Z,53.41
2018-06-01T22:57:10.672Z,54.96
2018-06-01T22:59:39.146Z,54.00
2018-06-01T23:02:07.567Z,54.18
2018-06-01T23:04:36.011Z,54.28
2018-06-01T23:07:04.646Z,54.61
2018-06-01T23:09:33.041Z,54.68
2018-06-01T23:12:01.452Z,55.75
2018-06-01T23:14:30.315Z,56.03
2018-06-01T23:16:59.579Z,54.73
2018-06-01T23:19:27.989Z,56.40
2018-06-01T23:21:56.773Z,55.81
2018-06-01T23:24:25.248Z,56.29
2018-06-01T23:26:53.713Z,56.40
2018-06-01T23:29:22.521Z,56.60
2018-06-01T23:31:50.934Z,56.45
2018-06-01T23:34:19.370Z,56.93
2018-06-01T23:36:47.837Z,57.78
2018-06-01T23:39:16.300Z,57.14
2018-06-01T23:41:44.702Z,56.39
2018-06-01T23:44:13.287Z,57.40
2018-06-01T23:46:41.682Z,57.15
2018-06-01T23:49:10.116Z,57.45
2018-06-01T23:51:38.857Z,57.98
2018-06-01T23:54:07.263Z,57.82
2018-06-01T23:56:35.630Z,58.16
2018-06-01T23:59:04.394Z,59.34
